createdAt,value
2022-11-01T00:02:48.720Z,98933.20
2022-11-01T00:07:53.218Z,98937.94
2022-11-01T00:12:55.034Z,98932.40
2022-11-01T00:17:56.876Z,98914.47
2022-11-01T00:22:58.833Z,98901.15
2022-11-01T00:28:01.031Z,98897.56
2022-11-01T00:33:04.327Z,98899.60
2022-11-01T00:38:06.392Z,98896.08
2022-11-01T00:43:08.572Z,98892.52
2022-11-01T00:48:10.676Z,98890.90
2022-11-01T00:53:12.883Z,98898.69
2022-11-01T00:58:14.699Z,98890.04
2022-11-01T01:03:16.493Z,98885.40
2022-11-01T01:08:18.500Z,98875.14
2022-11-01T01:13:20.922Z,98869.16
2022-11-01T01:18:22.700Z,98870.53
2022-11-01T01:23:24.537Z,98868.10
2022-11-01T01:28:26.383Z,98866.39
2022-11-01T01:33:28.147Z,98861.71
2022-11-01T01:38:30.447Z,98859.39
2022-11-01T01:43:43.789Z,98855.66
2022-11-01T01:48:49.659Z,98849.35
2022-11-01T01:53:55.335Z,98846.27
2022-11-01T01:59:01.611Z,98837.66
2022-11-01T02:04:06.453Z,98838.09
2022-11-01T02:09:09.929Z,98835.69
2022-11-01T02:14:11.797Z,98833.26
2022-11-01T02:19:25.781Z,98846.64
2022-11-01T02:24:57.033Z,98843.16
2022-11-01T02:30:20.414Z,98835.39
2022-11-01T02:35:24.909Z,98831.15
2022-11-01T02:40:48.324Z,98834.02
2022-11-01T02:45:51.254Z,98831.57
2022-11-01T02:50:57.185Z,98824.09
2022-11-01T02:55:59.042Z,98819.42
2022-11-01T03:01:00.864Z,98820.19
2022-11-01T03:06:06.186Z,98824.58
2022-11-01T03:11:36.317Z,98826.27
2022-11-01T03:16:41.179Z,98827.07
2022-11-01T03:22:06.043Z,98824.53
2022-11-01T03:27:16.241Z,98824.61
2022-11-01T03:32:19.627Z,98829.23
2022-11-01T03:37:22.857Z,98826.80
2022-11-01T03:42:25.391Z,98818.77
2022-11-01T03:47:27.712Z,98820.38
2022-11-01T03:52:29.504Z,98815.80
2022-11-01T03:57:31.292Z,98806.94
2022-11-01T04:02:33.081Z,98804.83
2022-11-01T04:07:34.888Z,98807.74
2022-11-01T04:12:37.022Z,98801.46
2022-11-01T04:17:57.649Z,98796.72
2022-11-01T04:23:05.222Z,98799.92
2022-11-01T04:28:07.281Z,98796.46
2022-11-01T04:33:09.527Z,98796.90
2022-11-01T04:38:12.785Z,98789.98
2022-11-01T04:43:14.581Z,98778.36
2022-11-01T04:48:17.061Z,98779.35
2022-11-01T04:53:19.047Z,98780.70
2022-11-01T04:58:20.937Z,98777.73
2022-11-01T05:03:22.750Z,98773.95
2022-11-01T05:08:24.554Z,98770.73
2022-11-01T05:13:26.370Z,98768.31
2022-11-01T05:18:29.513Z,98765.52
2022-11-01T05:23:31.379Z,98754.33
2022-11-01T05:28:33.246Z,98756.36
2022-11-01T05:33:34.996Z,98754.63
2022-11-01T05:38:36.781Z,98751.99
2022-11-01T05:43:38.508Z,98753.22
2022-11-01T05:48:41.919Z,98757.06
2022-11-01T05:53:43.739Z,98751.20
2022-11-01T05:58:47.750Z,98747.38
2022-11-01T06:03:50.660Z,98750.86
2022-11-01T06:08:52.490Z,98753.85
2022-11-01T06:13:55.716Z,98746.35
2022-11-01T06:18:57.491Z,98739.70
2022-11-01T06:23:59.242Z,98740.80
2022-11-01T06:29:02.286Z,98750.09
2022-11-01T06:34:04.046Z,98749.22
2022-11-01T06:39:05.808Z,98758.51
2022-11-01T06:44:08.165Z,98763.67
2022-11-01T06:49:12.381Z,98761.88
2022-11-01T06:54:16.601Z,98756.52
2022-11-01T06:59:18.424Z,98751.96
2022-11-01T07:04:21.324Z,98756.97
2022-11-01T07:09:23.245Z,98755.02
2022-11-01T07:14:25.025Z,98761.88
2022-11-01T07:19:26.872Z,98760.00
2022-11-01T07:24:28.625Z,98765.02
2022-11-01T07:29:30.399Z,98759.30
2022-11-01T07:34:32.226Z,98761.23
2022-11-01T07:39:34.029Z,98763.35
2022-11-01T07:44:35.835Z,98757.35
2022-11-01T07:49:37.594Z,98760.98
2022-11-01T07:54:39.484Z,98764.82
2022-11-01T07:59:41.250Z,98773.48
2022-11-01T08:04:43.051Z,98793.64
2022-11-01T08:09:44.901Z,98801.05
2022-11-01T08:14:46.703Z,98795.81
2022-11-01T08:19:51.216Z,98790.85
2022-11-01T08:24:53.062Z,98800.85
2022-11-01T08:29:54.904Z,98801.19
2022-11-01T08:34:56.742Z,98785.73
2022-11-01T08:39:58.502Z,98783.39
2022-11-01T08:45:00.308Z,98788.66
2022-11-01T08:50:03.275Z,98798.77
2022-11-01T08:55:08.698Z,98797.45
2022-11-01T09:00:12.591Z,98795.92
2022-11-01T09:05:14.469Z,98796.80
2022-11-01T09:10:17.153Z,98806.05
2022-11-01T09:15:19.057Z,98812.47
2022-11-01T09:20:20.893Z,98818.70
2022-11-01T09:25:22.885Z,98820.23
2022-11-01T09:30:26.106Z,98827.95
2022-11-01T09:35:27.902Z,98840.13
2022-11-01T09:40:37.662Z,98832.42
2022-11-01T09:45:39.454Z,98822.48
2022-11-01T09:50:43.927Z,98828.17
2022-11-01T09:56:30.492Z,98817.52
2022-11-01T10:01:41.228Z,98807.98
2022-11-01T10:06:49.354Z,98811.52
2022-11-01T10:12:01.201Z,98815.41
2022-11-01T10:17:13.633Z,98809.36
2022-11-01T10:22:27.624Z,98805.84
2022-11-01T10:27:41.926Z,98810.29
2022-11-01T10:33:20.762Z,98808.84
2022-11-01T10:44:05.367Z,98798.20
2022-11-01T10:49:18.028Z,98808.86
2022-11-01T10:54:26.111Z,98816.45
2022-11-01T10:59:42.328Z,98817.45
2022-11-01T11:04:44.513Z,98821.52
2022-11-01T11:09:50.262Z,98815.11
2022-11-01T11:15:00.023Z,98809.34
2022-11-01T11:20:06.141Z,98811.90
2022-11-01T11:25:17.657Z,98815.86
2022-11-01T11:30:32.716Z,98818.42
2022-11-01T11:35:37.286Z,98822.75
2022-11-01T11:40:39.113Z,98827.27
2022-11-01T11:45:40.979Z,98824.97
2022-11-01T11:50:43.602Z,98819.30
2022-11-01T11:55:48.468Z,98820.99
2022-11-01T12:00:54.050Z,98829.01
2022-11-01T12:06:08.708Z,98829.27
2022-11-01T12:11:11.589Z,98826.31
2022-11-01T12:16:14.389Z,98831.39
2022-11-01T12:21:19.790Z,98824.30
2022-11-01T12:26:24.288Z,98819.73
2022-11-01T12:31:31.215Z,98825.83
2022-11-01T12:36:51.209Z,98835.95
2022-11-01T12:41:59.582Z,98836.55
2022-11-01T12:47:06.660Z,98837.52
2022-11-01T12:52:52.104Z,98843.41
2022-11-01T12:57:55.160Z,98845.84
2022-11-01T13:03:11.455Z,98853.90
2022-11-01T13:08:23.365Z,98853.17
2022-11-01T13:13:31.404Z,98852.67
2022-11-01T13:18:58.682Z,98855.52
2022-11-01T13:24:13.432Z,98861.42
2022-11-01T13:29:23.293Z,98858.13
2022-11-01T13:34:37.596Z,98860.42
2022-11-01T13:40:21.006Z,98859.70
2022-11-01T13:45:47.510Z,98865.05
2022-11-01T13:51:09.769Z,98866.23
2022-11-01T13:56:22.765Z,98862.98
2022-11-01T14:01:35.560Z,98870.35
2022-11-01T14:06:41.951Z,98877.77
2022-11-01T14:11:50.944Z,98879.55
2022-11-01T14:16:52.779Z,98878.47
2022-11-01T14:21:54.654Z,98876.52
2022-11-01T14:26:56.863Z,98876.33
2022-11-01T14:31:59.488Z,98876.68
2022-11-01T14:37:11.780Z,98872.02
2022-11-01T14:42:23.029Z,98866.60
2022-11-01T14:47:33.245Z,98868.84
2022-11-01T14:52:43.562Z,98871.85
2022-11-01T14:57:46.129Z,98870.35
2022-11-01T15:02:47.996Z,98877.68
2022-11-01T15:07:53.703Z,98884.56
2022-11-01T15:13:02.418Z,98886.04
2022-11-01T15:18:16.943Z,98892.39
2022-11-01T15:23:22.414Z,98892.31
2022-11-01T15:28:32.592Z,98892.67
2022-11-01T15:33:35.013Z,98892.34
2022-11-01T15:38:53.082Z,98900.79
2022-11-01T15:43:57.352Z,98904.73
2022-11-01T15:49:05.607Z,98909.16
2022-11-01T15:54:26.784Z,98912.85
2022-11-01T15:59:59.485Z,98915.09
2022-11-01T16:05:01.446Z,98917.02
2022-11-01T16:10:05.641Z,98918.33
2022-11-01T16:15:32.053Z,98917.86
2022-11-01T16:20:36.861Z,98914.90
2022-11-01T16:25:39.462Z,98923.20
2022-11-01T16:30:49.875Z,98934.70
2022-11-01T16:35:59.210Z,98930.95
2022-11-01T16:41:04.550Z,98935.36
2022-11-01T16:46:06.377Z,98939.73
2022-11-01T16:51:09.310Z,98947.10
2022-11-01T16:56:35.701Z,98949.59
2022-11-01T17:01:39.180Z,98957.48
2022-11-01T17:06:41.099Z,98964.59
2022-11-01T17:11:50.485Z,98975.64
2022-11-01T17:16:53.281Z,98978.37
2022-11-01T17:21:55.416Z,98982.45
2022-11-01T17:27:00.778Z,98982.09
2022-11-01T17:32:04.219Z,98985.74
2022-11-01T17:37:06.524Z,98984.23
2022-11-01T17:42:09.857Z,98992.61
2022-11-01T17:47:15.040Z,98997.36
2022-11-01T17:52:17.802Z,98998.27
2022-11-01T17:57:19.731Z,99001.17
2022-11-01T18:02:22.086Z,99001.91
2022-11-01T18:07:24.592Z,98999.09
2022-11-01T18:12:36.750Z,98998.90
2022-11-01T18:17:48.432Z,98991.10
2022-11-01T18:22:57.945Z,98991.53
2022-11-01T18:28:02.273Z,98994.17
2022-11-01T18:33:31.772Z,98993.27
2022-11-01T18:38:46.453Z,98997.07
2022-11-01T18:43:52.026Z,99000.73
2022-11-01T18:49:02.024Z,99011.69
2022-11-01T18:54:10.012Z,99005.70
2022-11-01T18:59:15.138Z,99006.65
2022-11-01T19:04:24.471Z,99014.30
2022-11-01T19:09:29.814Z,99017.77
2022-11-01T19:14:32.872Z,99021.08
2022-11-01T19:19:37.687Z,99021.77
2022-11-01T19:24:40.165Z,99027.01
2022-11-01T19:29:42.059Z,99032.06
2022-11-01T19:34:43.994Z,99035.74
2022-11-01T19:39:47.243Z,99034.61
2022-11-01T19:44:49.131Z,99029.77
2022-11-01T19:49:51.052Z,99028.55
2022-11-01T19:54:53.444Z,99038.08
2022-11-01T20:00:04.031Z,99035.33
2022-11-01T20:05:25.832Z,99044.61
2022-11-01T20:10:27.853Z,99045.29
2022-11-01T20:15:29.914Z,99058.58
2022-11-01T20:20:32.640Z,99065.11
2022-11-01T20:25:35.090Z,99067.54
2022-11-01T20:30:37.031Z,99074.96
2022-11-01T20:35:38.908Z,99072.05
2022-11-01T20:40:40.794Z,99078.48
2022-11-01T20:45:42.679Z,99088.58
2022-11-01T20:50:45.401Z,99091.45
2022-11-01T20:55:47.612Z,99095.13
2022-11-01T21:00:51.643Z,99093.16
2022-11-01T21:05:53.606Z,99101.65
2022-11-01T21:10:57.626Z,99101.73
2022-11-01T21:16:01.835Z,99108.23
2022-11-01T21:21:45.303Z,99098.80
2022-11-01T21:26:50.904Z,99099.92
2022-11-01T21:31:57.141Z,99099.58
2022-11-01T21:36:59.484Z,99102.04
2022-11-01T21:42:22.653Z,99099.89
2022-11-01T21:47:27.070Z,99096.88
2022-11-01T21:52:28.848Z,99092.33
2022-11-01T21:57:30.622Z,99083.71
2022-11-01T22:02:32.464Z,99072.88
2022-11-01T22:07:34.345Z,99067.22
2022-11-01T22:12:41.149Z,99082.86
2022-11-01T22:17:42.939Z,99085.85
2022-11-01T22:22:44.727Z,99090.25
2022-11-01T22:27:46.634Z,99086.30
2022-11-01T22:32:49.743Z,99081.52
2022-11-01T22:37:51.516Z,99083.09
2022-11-01T22:42:58.272Z,99083.98
2022-11-01T22:48:00.366Z,99080.43
2022-11-01T22:53:02.523Z,99082.07
2022-11-01T22:58:18.811Z,99091.59
2022-11-01T23:03:28.520Z,99099.21
2022-11-01T23:08:33.278Z,99092.55
2022-11-01T23:13:56.472Z,99077.44
2022-11-01T23:19:01.384Z,99072.80
2022-11-01T23:24:03.471Z,99077.68
2022-11-01T23:29:05.424Z,99085.66
2022-11-01T23:34:10.124Z,99085.52
2022-11-01T23:39:13.343Z,99078.99
2022-11-01T23:44:37.335Z,99077.81
2022-11-01T23:49:39.153Z,99074.02
2022-11-01T23:54:43.163Z,99078.48
2022-11-01T23:59:45.604Z,99080.70
